createdAt,value
2018-02-08T00:01:06.324Z,0
2018-02-08T00:02:16.449Z,0
2018-02-08T00:03:26.632Z,0
2018-02-08T00:04:36.559Z,0
2018-02-08T00:05:46.410Z,0
2018-02-08T00:06:56.545Z,0
2018-02-08T00:08:06.666Z,0
2018-02-08T00:09:16.778Z,0
2018-02-08T00:10:26.909Z,0
2018-02-08T00:11:37.013Z,0
2018-02-08T00:12:47.122Z,0
2018-02-08T00:13:57.242Z,0
2018-02-08T00:15:07.350Z,0
2018-02-08T00:16:17.203Z,0
2018-02-08T00:17:27.069Z,0
2018-02-08T00:18:37.199Z,0
2018-02-08T00:19:47.343Z,0
2018-02-08T00:20:57.216Z,0
2018-02-08T00:22:07.008Z,0
2018-02-08T00:23:17.123Z,0
2018-02-08T00:24:27.256Z,0
2018-02-08T00:25:37.111Z,0
2018-02-08T00:26:47.242Z,0
2018-02-08T00:27:57.358Z,0
2018-02-08T00:29:07.651Z,0
2018-02-08T00:30:17.887Z,0
2018-02-08T00:31:28.051Z,0
2018-02-08T00:32:38.274Z,0
2018-02-08T00:33:48.554Z,0
2018-02-08T00:34:58.690Z,0
2018-02-08T00:36:08.555Z,0
2018-02-08T00:37:18.721Z,0
2018-02-08T00:38:28.690Z,0
2018-02-08T00:39:39.769Z,0
2018-02-08T00:40:49.939Z,0
2018-02-08T00:42:00.098Z,0
2018-02-08T00:43:10.336Z,0
2018-02-08T00:44:20.545Z,0
2018-02-08T00:45:30.316Z,0
2018-02-08T00:46:40.416Z,0
2018-02-08T00:47:50.522Z,0
2018-02-08T00:49:01.381Z,0
2018-02-08T00:50:11.735Z,0
2018-02-08T00:51:21.874Z,0
2018-02-08T00:52:32.128Z,0
2018-02-08T00:53:41.983Z,0
2018-02-08T00:54:53.069Z,0
2018-02-08T00:56:02.942Z,0
2018-02-08T00:57:13.043Z,0
2018-02-08T00:58:23.217Z,0
2018-02-08T00:59:33.363Z,0
2018-02-08T01:00:43.578Z,0
2018-02-08T01:01:53.713Z,0
2018-02-08T01:03:03.813Z,0
2018-02-08T01:04:13.919Z,0
2018-02-08T01:05:24.021Z,0
2018-02-08T01:06:34.248Z,0
2018-02-08T01:07:44.158Z,0
2018-02-08T01:08:54.255Z,0
2018-02-08T01:10:04.475Z,0
2018-02-08T01:11:14.619Z,0
2018-02-08T01:12:24.485Z,0
2018-02-08T01:13:34.653Z,0
2018-02-08T01:14:44.860Z,0
2018-02-08T01:15:55.077Z,0
2018-02-08T01:17:05.205Z,0
2018-02-08T01:18:15.362Z,0
2018-02-08T01:19:25.484Z,0
2018-02-08T01:20:35.585Z,0
2018-02-08T01:21:45.748Z,0
2018-02-08T01:22:55.938Z,0
2018-02-08T01:24:06.217Z,0
2018-02-08T01:25:16.446Z,0
2018-02-08T01:26:26.563Z,0
2018-02-08T01:27:36.733Z,0
2018-02-08T01:28:46.886Z,0
2018-02-08T01:29:56.985Z,0
2018-02-08T01:31:07.103Z,0
2018-02-08T01:32:17.265Z,0
2018-02-08T01:33:27.422Z,0
2018-02-08T01:34:37.569Z,0
2018-02-08T01:35:47.434Z,0
2018-02-08T01:36:57.588Z,0
2018-02-08T01:38:07.813Z,0
2018-02-08T01:39:17.966Z,0
2018-02-08T01:40:28.140Z,0
2018-02-08T01:41:38.532Z,0
2018-02-08T01:42:48.410Z,0
2018-02-08T01:43:58.522Z,0
2018-02-08T01:45:08.739Z,0
2018-02-08T01:46:18.886Z,0
2018-02-08T01:47:29.086Z,0
2018-02-08T01:48:39.204Z,0
2018-02-08T01:49:49.337Z,0
2018-02-08T01:50:59.439Z,0
2018-02-08T01:52:09.430Z,0
2018-02-08T01:53:19.551Z,0
2018-02-08T01:54:29.664Z,0
2018-02-08T01:55:39.774Z,0
2018-02-08T01:56:51.755Z,0
2018-02-08T01:58:01.925Z,0
2018-02-08T01:59:12.027Z,0
2018-02-08T02:00:22.127Z,0
2018-02-08T02:01:32.377Z,0
2018-02-08T02:02:42.225Z,0
2018-02-08T02:03:52.067Z,0
2018-02-08T02:05:02.167Z,0
2018-02-08T02:06:12.241Z,0
2018-02-08T02:07:22.452Z,0
2018-02-08T02:08:32.295Z,0
2018-02-08T02:09:42.418Z,0
2018-02-08T02:10:52.636Z,0
2018-02-08T02:12:02.773Z,0
2018-02-08T02:13:13.016Z,0
2018-02-08T02:14:23.217Z,0
2018-02-08T02:15:33.371Z,0
2018-02-08T02:16:43.611Z,0
2018-02-08T02:17:53.800Z,0
2018-02-08T02:19:03.952Z,0
2018-02-08T02:20:13.878Z,0
2018-02-08T02:21:24.103Z,0
2018-02-08T02:22:33.912Z,0
2018-02-08T02:23:44.107Z,0
2018-02-08T02:24:53.950Z,0
2018-02-08T02:26:04.104Z,0
2018-02-08T02:27:14.266Z,0
2018-02-08T02:28:24.561Z,0
2018-02-08T02:29:34.721Z,0
2018-02-08T02:30:45.548Z,0
2018-02-08T02:31:55.666Z,0
2018-02-08T02:33:06.759Z,0
2018-02-08T02:34:17.014Z,0
2018-02-08T02:35:27.280Z,0
2018-02-08T02:36:37.414Z,0
2018-02-08T02:37:47.207Z,0
2018-02-08T02:38:57.347Z,0
2018-02-08T02:40:07.549Z,0
2018-02-08T02:41:17.798Z,0
2018-02-08T02:42:27.949Z,0
2018-02-08T02:43:38.108Z,0
2018-02-08T02:44:48.228Z,0
2018-02-08T02:45:58.340Z,0
2018-02-08T02:47:08.579Z,0
2018-02-08T02:48:18.804Z,0
2018-02-08T02:49:29.095Z,0
2018-02-08T02:50:39.223Z,0
2018-02-08T02:51:49.077Z,0
2018-02-08T02:52:59.206Z,0
2018-02-08T02:54:09.378Z,0
2018-02-08T02:55:19.573Z,0
2018-02-08T02:56:29.164Z,0
2018-02-08T02:57:39.566Z,0
2018-02-08T02:58:50.764Z,0
2018-02-08T03:00:00.964Z,0
2018-02-08T03:01:11.137Z,0
2018-02-08T03:02:20.628Z,0
2018-02-08T03:03:30.480Z,0
2018-02-08T03:04:40.627Z,0
2018-02-08T03:05:50.750Z,0
2018-02-08T03:07:00.936Z,0
2018-02-08T03:08:11.070Z,0
2018-02-08T03:09:21.190Z,0
2018-02-08T03:10:30.449Z,0
2018-02-08T03:11:40.990Z,0
2018-02-08T03:12:52.061Z,0
2018-02-08T03:14:02.166Z,0
2018-02-08T03:15:12.331Z,0
2018-02-08T03:16:22.626Z,0
2018-02-08T03:17:32.738Z,0
2018-02-08T03:18:42.964Z,0
2018-02-08T03:19:53.084Z,0
2018-02-08T03:21:03.185Z,0
2018-02-08T03:22:13.319Z,0
2018-02-08T03:23:23.414Z,0
2018-02-08T03:24:33.287Z,0
2018-02-08T03:25:43.414Z,0
2018-02-08T03:26:53.537Z,0
2018-02-08T03:28:04.815Z,0
2018-02-08T03:29:15.005Z,0
2018-02-08T03:30:25.184Z,0
2018-02-08T03:31:35.419Z,0
2018-02-08T03:32:45.622Z,0
2018-02-08T03:33:55.901Z,0
2018-02-08T03:35:06.160Z,0
2018-02-08T03:36:16.503Z,0
2018-02-08T03:37:26.422Z,0
2018-02-08T03:38:36.529Z,0
2018-02-08T03:39:46.496Z,0
2018-02-08T03:40:56.449Z,0
2018-02-08T03:42:06.692Z,0
2018-02-08T03:43:16.795Z,0
2018-02-08T03:44:27.878Z,0
2018-02-08T03:45:38.148Z,0
2018-02-08T03:46:48.440Z,0
2018-02-08T03:47:58.667Z,0
2018-02-08T03:49:08.529Z,0
2018-02-08T03:50:18.638Z,0
2018-02-08T03:51:28.781Z,0
2018-02-08T03:52:39.183Z,0
2018-02-08T03:53:49.291Z,0
2018-02-08T03:54:59.131Z,0
2018-02-08T03:56:08.972Z,0
2018-02-08T03:57:19.071Z,0
2018-02-08T03:58:29.200Z,0
2018-02-08T03:59:39.351Z,0
2018-02-08T04:00:49.487Z,0
2018-02-08T04:01:59.599Z,0
2018-02-08T04:03:09.697Z,0
2018-02-08T04:04:19.568Z,0
2018-02-08T04:05:29.677Z,0
2018-02-08T04:06:39.524Z,0
2018-02-08T04:07:49.650Z,0
2018-02-08T04:08:59.798Z,0
2018-02-08T04:10:09.931Z,0
2018-02-08T04:11:20.037Z,0
2018-02-08T04:12:30.357Z,0
2018-02-08T04:13:40.589Z,0
2018-02-08T04:14:50.853Z,0
2018-02-08T04:16:00.967Z,0
2018-02-08T04:17:11.140Z,0
2018-02-08T04:18:21.325Z,0
2018-02-08T04:19:31.522Z,0
2018-02-08T04:20:41.721Z,0
2018-02-08T04:21:51.833Z,0
2018-02-08T04:23:01.933Z,0
2018-02-08T04:24:12.050Z,0
2018-02-08T04:25:22.194Z,0
2018-02-08T04:26:32.055Z,0
2018-02-08T04:27:42.161Z,0
2018-02-08T04:28:52.488Z,0
2018-02-08T04:30:02.408Z,0
2018-02-08T04:31:12.520Z,0
2018-02-08T04:32:22.621Z,0
2018-02-08T04:33:32.572Z,0
2018-02-08T04:34:42.719Z,0
2018-02-08T04:35:52.324Z,0
2018-02-08T04:37:02.189Z,0
2018-02-08T04:38:12.431Z,0
2018-02-08T04:39:22.541Z,0
2018-02-08T04:40:32.802Z,0
2018-02-08T04:41:42.988Z,0
2018-02-08T04:42:52.845Z,0
2018-02-08T04:44:02.786Z,0
2018-02-08T04:45:12.711Z,0
2018-02-08T04:46:22.612Z,0
2018-02-08T04:47:32.372Z,0
2018-02-08T04:48:42.537Z,0
2018-02-08T04:49:52.661Z,0
2018-02-08T04:51:02.838Z,0
2018-02-08T04:52:12.695Z,0
2018-02-08T04:53:22.803Z,0
2018-02-08T04:54:32.958Z,0
2018-02-08T04:55:43.166Z,0
2018-02-08T04:56:53.390Z,0
2018-02-08T04:58:03.570Z,0
2018-02-08T04:59:14.713Z,0
2018-02-08T05:00:24.797Z,0
2018-02-08T05:01:34.930Z,0
2018-02-08T05:02:46.039Z,0
2018-02-08T05:03:56.173Z,0
2018-02-08T05:05:06.428Z,0
2018-02-08T05:06:16.753Z,0
2018-02-08T05:07:27.012Z,0
2018-02-08T05:08:37.270Z,0
2018-02-08T05:09:47.402Z,0
2018-02-08T05:10:57.636Z,0
2018-02-08T05:12:07.788Z,0
2018-02-08T05:13:17.914Z,0
2018-02-08T05:14:28.139Z,0
2018-02-08T05:15:38.290Z,0
2018-02-08T05:16:48.642Z,0
2018-02-08T05:17:58.559Z,0
2018-02-08T05:19:08.680Z,0
2018-02-08T05:20:18.834Z,0
2018-02-08T05:21:29.078Z,0
2018-02-08T05:22:39.293Z,0
2018-02-08T05:23:49.133Z,0
2018-02-08T05:24:59.240Z,0
2018-02-08T05:26:09.404Z,0
2018-02-08T05:27:19.592Z,0
2018-02-08T05:28:29.813Z,0
2018-02-08T05:29:39.968Z,0
2018-02-08T05:30:50.073Z,0
2018-02-08T05:31:59.922Z,0
2018-02-08T05:33:10.176Z,0
2018-02-08T05:34:20.383Z,0
2018-02-08T05:35:30.533Z,0
2018-02-08T05:36:40.630Z,0
2018-02-08T05:37:50.779Z,0
2018-02-08T05:39:00.894Z,0
2018-02-08T05:40:11.087Z,0
2018-02-08T05:41:21.257Z,0
2018-02-08T05:42:31.527Z,0
2018-02-08T05:43:41.711Z,0
2018-02-08T05:44:51.920Z,0
2018-02-08T05:46:02.038Z,0
2018-02-08T05:47:13.160Z,0
2018-02-08T05:48:23.269Z,0
2018-02-08T05:49:33.398Z,0
2018-02-08T05:50:43.592Z,0
2018-02-08T05:51:53.771Z,0
2018-02-08T05:53:04.026Z,0
2018-02-08T05:54:15.171Z,0
2018-02-08T05:55:26.251Z,0
2018-02-08T05:56:36.395Z,0
2018-02-08T05:57:46.164Z,0
2018-02-08T05:58:56.271Z,0
2018-02-08T06:00:06.374Z,0
2018-02-08T06:01:16.502Z,0
2018-02-08T06:02:26.596Z,0
2018-02-08T06:03:36.713Z,0
2018-02-08T06:04:46.858Z,0
2018-02-08T06:05:56.337Z,0
2018-02-08T06:07:06.485Z,0
2018-02-08T06:08:16.617Z,0
2018-02-08T06:09:26.754Z,0
2018-02-08T06:10:36.962Z,0
2018-02-08T06:11:47.115Z,0
2018-02-08T06:12:57.293Z,0
2018-02-08T06:14:07.402Z,0
2018-02-08T06:15:17.511Z,0
2018-02-08T06:16:27.639Z,0
2018-02-08T06:17:37.759Z,0
2018-02-08T06:18:47.926Z,0
2018-02-08T06:19:58.110Z,0
2018-02-08T06:21:08.225Z,0
2018-02-08T06:22:18.350Z,0
2018-02-08T06:23:28.461Z,0
2018-02-08T06:24:38.388Z,0
2018-02-08T06:25:48.493Z,0
2018-02-08T06:26:58.607Z,0
2018-02-08T06:28:08.724Z,0
2018-02-08T06:29:19.020Z,0
2018-02-08T06:30:29.190Z,0
2018-02-08T06:31:39.347Z,0
2018-02-08T06:32:49.276Z,0
2018-02-08T06:33:59.406Z,0
2018-02-08T06:35:09.593Z,5
2018-02-08T06:36:19.757Z,5
2018-02-08T06:37:29.945Z,5
2018-02-08T06:38:40.299Z,5
2018-02-08T06:39:50.577Z,5
2018-02-08T06:41:00.456Z,5
2018-02-08T06:42:10.334Z,5
2018-02-08T06:43:20.458Z,10
2018-02-08T06:44:30.321Z,10
2018-02-08T06:45:40.431Z,10
2018-02-08T06:46:50.623Z,10
2018-02-08T06:48:00.753Z,10
2018-02-08T06:49:10.905Z,15
2018-02-08T06:50:20.764Z,15
2018-02-08T06:51:30.877Z,15
2018-02-08T06:52:41.102Z,15
2018-02-08T06:53:50.978Z,20
2018-02-08T06:55:01.103Z,20
2018-02-08T06:56:11.216Z,20
2018-02-08T06:57:21.338Z,25
2018-02-08T06:58:31.487Z,25
2018-02-08T06:59:42.131Z,30
2018-02-08T07:00:52.241Z,30
2018-02-08T07:02:02.390Z,35
2018-02-08T07:03:12.705Z,35
2018-02-08T07:04:22.860Z,40
2018-02-08T07:05:32.968Z,40
2018-02-08T07:06:42.729Z,40
2018-02-08T07:07:52.916Z,45
2018-02-08T07:09:02.877Z,45
2018-02-08T07:10:13.000Z,45
2018-02-08T07:11:23.130Z,50
2018-02-08T07:12:33.289Z,50
2018-02-08T07:13:43.054Z,55
2018-02-08T07:14:53.224Z,55
2018-02-08T07:16:03.357Z,60
2018-02-08T07:17:12.988Z,65
2018-02-08T07:18:23.105Z,70
2018-02-08T07:19:34.205Z,75
2018-02-08T07:20:44.372Z,85
2018-02-08T07:21:54.505Z,90
2018-02-08T07:23:04.638Z,100
2018-02-08T07:24:14.822Z,105
2018-02-08T07:25:24.980Z,100
2018-02-08T07:26:35.107Z,120
2018-02-08T07:27:45.340Z,120
2018-02-08T07:28:55.554Z,125
2018-02-08T07:30:05.318Z,135
2018-02-08T07:31:15.463Z,140
2018-02-08T07:32:25.084Z,140
2018-02-08T07:33:35.291Z,140
2018-02-08T07:34:45.428Z,135
2018-02-08T07:35:55.520Z,145
2018-02-08T07:37:05.660Z,170
2018-02-08T07:38:15.785Z,175
2018-02-08T07:39:26.031Z,185
2018-02-08T07:40:36.148Z,185
2018-02-08T07:41:46.309Z,195
2018-02-08T07:42:56.486Z,205
2018-02-08T07:44:06.605Z,210
2018-02-08T07:45:16.755Z,215
2018-02-08T07:46:26.870Z,220
2018-02-08T07:47:36.729Z,210
2018-02-08T07:48:46.847Z,180
2018-02-08T07:49:57.967Z,210
2018-02-08T07:51:07.825Z,245
2018-02-08T07:52:17.939Z,255
2018-02-08T07:53:27.852Z,265
2018-02-08T07:54:37.950Z,270
2018-02-08T07:55:47.818Z,280
2018-02-08T07:56:57.696Z,285
2018-02-08T07:58:07.840Z,295
2018-02-08T07:59:17.947Z,265
2018-02-08T08:00:27.840Z,310
2018-02-08T08:01:37.950Z,315
2018-02-08T08:02:48.059Z,325
2018-02-08T08:03:58.242Z,340
2018-02-08T08:05:08.121Z,345
2018-02-08T08:06:18.250Z,355
2018-02-08T08:07:28.362Z,360
2018-02-08T08:08:38.643Z,365
2018-02-08T08:09:48.407Z,375
2018-02-08T08:10:58.574Z,385
2018-02-08T08:12:08.484Z,400
2018-02-08T08:13:18.391Z,400
2018-02-08T08:14:28.513Z,410
2018-02-08T08:15:38.621Z,420
2018-02-08T08:16:48.753Z,435
2018-02-08T08:17:58.867Z,450
2018-02-08T08:19:08.465Z,450
2018-02-08T08:20:18.606Z,460
2018-02-08T08:21:28.475Z,465
2018-02-08T08:22:38.683Z,475
2018-02-08T08:23:48.618Z,485
2018-02-08T08:24:58.479Z,495
2018-02-08T08:26:08.646Z,525
2018-02-08T08:27:18.776Z,535
2018-02-08T08:28:28.895Z,535
2018-02-08T08:29:39.169Z,530
2018-02-08T08:30:49.415Z,535
2018-02-08T08:31:59.307Z,550
2018-02-08T08:33:09.429Z,565
2018-02-08T08:34:19.565Z,565
2018-02-08T08:35:29.517Z,585
2018-02-08T08:36:39.640Z,610
2018-02-08T08:37:49.766Z,625
2018-02-08T08:39:00.074Z,620
2018-02-08T08:40:09.894Z,630
2018-02-08T08:41:20.041Z,645
2018-02-08T08:42:30.187Z,650
2018-02-08T08:43:40.329Z,635
2018-02-08T08:44:50.541Z,650
2018-02-08T08:46:00.784Z,660
2018-02-08T08:47:10.674Z,680
2018-02-08T08:48:20.824Z,670
2018-02-08T08:49:30.996Z,655
2018-02-08T08:50:41.239Z,665
2018-02-08T08:51:51.451Z,685
2018-02-08T08:53:01.684Z,700
2018-02-08T08:54:12.558Z,720
2018-02-08T08:55:22.677Z,730
2018-02-08T08:56:32.574Z,725
2018-02-08T08:57:42.710Z,730
2018-02-08T08:58:52.882Z,745
2018-02-08T09:00:03.103Z,745
2018-02-08T09:01:13.267Z,735
2018-02-08T09:02:24.353Z,740
2018-02-08T09:03:34.563Z,770
2018-02-08T09:04:44.767Z,785
2018-02-08T09:05:54.388Z,800
2018-02-08T09:07:04.502Z,805
2018-02-08T09:08:14.645Z,795
2018-02-08T09:09:24.771Z,805
2018-02-08T09:10:34.962Z,820
2018-02-08T09:11:45.112Z,825
2018-02-08T09:12:55.263Z,830
2018-02-08T09:14:05.377Z,855
2018-02-08T09:15:15.616Z,865
2018-02-08T09:16:25.814Z,870
2018-02-08T09:17:35.980Z,930
2018-02-08T09:18:46.166Z,975
2018-02-08T09:19:56.307Z,995
2018-02-08T09:21:06.417Z,995
2018-02-08T09:22:16.577Z,980
2018-02-08T09:23:26.735Z,955
2018-02-08T09:24:36.890Z,950
2018-02-08T09:25:46.766Z,955
2018-02-08T09:26:56.457Z,980
2018-02-08T09:28:06.578Z,1015
2018-02-08T09:29:16.726Z,1055
2018-02-08T09:30:26.885Z,1025
2018-02-08T09:31:37.023Z,990
2018-02-08T09:32:47.182Z,1005
2018-02-08T09:33:57.311Z,1030
2018-02-08T09:35:07.436Z,1020
2018-02-08T09:36:17.579Z,985
2018-02-08T09:37:27.787Z,990
2018-02-08T09:38:37.925Z,1020
2018-02-08T09:39:48.076Z,1030
2018-02-08T09:40:58.280Z,1040
2018-02-08T09:42:08.193Z,1055
2018-02-08T09:43:18.076Z,1070
2018-02-08T09:44:28.212Z,1085
2018-02-08T09:45:39.363Z,1100
2018-02-08T09:46:49.525Z,1080
2018-02-08T09:47:59.661Z,1080
2018-02-08T09:49:09.829Z,1090
2018-02-08T09:50:20.058Z,1095
2018-02-08T09:51:30.257Z,1115
2018-02-08T09:52:40.429Z,1140
2018-02-08T09:53:50.594Z,1145
2018-02-08T09:55:00.740Z,1190
2018-02-08T09:56:10.901Z,1220
2018-02-08T09:57:21.064Z,1200
2018-02-08T09:58:31.216Z,1200
2018-02-08T09:59:41.460Z,1240
2018-02-08T10:00:51.720Z,1260
2018-02-08T10:02:01.870Z,1230
2018-02-08T10:03:12.064Z,1215
2018-02-08T10:04:22.206Z,1245
2018-02-08T10:05:32.005Z,1285
2018-02-08T10:06:42.239Z,1270
2018-02-08T10:07:52.472Z,1230
2018-02-08T10:09:02.704Z,1205
2018-02-08T10:10:12.932Z,1170
2018-02-08T10:11:23.186Z,1175
2018-02-08T10:12:34.051Z,1195
2018-02-08T10:13:44.208Z,1230
2018-02-08T10:14:54.345Z,1240
2018-02-08T10:16:04.504Z,1245
2018-02-08T10:17:14.721Z,1300
2018-02-08T10:18:24.858Z,1360
2018-02-08T10:19:35.080Z,1325
2018-02-08T10:20:45.252Z,1265
2018-02-08T10:21:55.227Z,1255
2018-02-08T10:23:05.389Z,1265
2018-02-08T10:24:15.282Z,1285
2018-02-08T10:25:25.171Z,1335
2018-02-08T10:26:35.570Z,1325
2018-02-08T10:27:45.731Z,1260
2018-02-08T10:28:56.011Z,1195
2018-02-08T10:30:05.900Z,1210
2018-02-08T10:31:16.070Z,1230
2018-02-08T10:32:26.220Z,1260
2018-02-08T10:33:36.384Z,1245
2018-02-08T10:34:46.527Z,1240
2018-02-08T10:35:56.776Z,1265
2018-02-08T10:37:07.039Z,1330
2018-02-08T10:38:17.338Z,1370
2018-02-08T10:39:27.568Z,1355
2018-02-08T10:40:37.751Z,1320
2018-02-08T10:41:47.962Z,1305
2018-02-08T10:42:57.884Z,1335
2018-02-08T10:44:08.015Z,1370
2018-02-08T10:45:18.169Z,1375
2018-02-08T10:46:28.326Z,1370
2018-02-08T10:47:38.506Z,1360
2018-02-08T10:48:48.314Z,1355
2018-02-08T10:49:58.262Z,1340
2018-02-08T10:51:08.412Z,1340
2018-02-08T10:52:18.664Z,1325
2018-02-08T10:53:28.850Z,1335
2018-02-08T10:54:38.999Z,1355
2018-02-08T10:55:49.139Z,1390
2018-02-08T10:56:59.284Z,1370
2018-02-08T10:58:09.454Z,1310
2018-02-08T10:59:19.662Z,1295
2018-02-08T11:00:29.818Z,1330
2018-02-08T11:01:39.951Z,1365
2018-02-08T11:02:50.112Z,1370
2018-02-08T11:04:00.271Z,1355
2018-02-08T11:05:10.450Z,1395
2018-02-08T11:06:20.613Z,1415
2018-02-08T11:07:30.800Z,1435
2018-02-08T11:08:41.034Z,1415
2018-02-08T11:09:51.260Z,1415
2018-02-08T11:11:01.529Z,1445
2018-02-08T11:12:11.810Z,1445
2018-02-08T11:13:21.985Z,1430
2018-02-08T11:14:32.171Z,1390
2018-02-08T11:15:42.403Z,1365
2018-02-08T11:16:52.371Z,1360
2018-02-08T11:18:02.531Z,1390
2018-02-08T11:19:12.164Z,1385
2018-02-08T11:20:22.417Z,1345
2018-02-08T11:21:32.327Z,1325
2018-02-08T11:22:42.450Z,1335
2018-02-08T11:23:52.348Z,1425
2018-02-08T11:25:02.535Z,1475
2018-02-08T11:26:12.792Z,1490
2018-02-08T11:27:22.957Z,1495
2018-02-08T11:28:33.115Z,1480
2018-02-08T11:29:43.278Z,1470
2018-02-08T11:30:53.439Z,1440
2018-02-08T11:32:03.329Z,1420
2018-02-08T11:33:13.463Z,1390
2018-02-08T11:34:23.604Z,1370
2018-02-08T11:35:33.811Z,1350
2018-02-08T11:36:43.689Z,1340
2018-02-08T11:37:53.943Z,1330
2018-02-08T11:39:04.117Z,1305
2018-02-08T11:40:14.296Z,1305
2018-02-08T11:41:24.516Z,1290
2018-02-08T11:42:34.704Z,1325
2018-02-08T11:43:44.860Z,1410
2018-02-08T11:44:55.000Z,1445
2018-02-08T11:46:05.213Z,1415
2018-02-08T11:47:15.593Z,1345
2018-02-08T11:48:25.767Z,1295
2018-02-08T11:49:35.951Z,1305
2018-02-08T11:50:46.203Z,1310
2018-02-08T11:51:56.369Z,1315
2018-02-08T11:53:06.512Z,1300
2018-02-08T11:54:16.420Z,1295
2018-02-08T11:55:26.578Z,1290
2018-02-08T11:56:36.748Z,1300
2018-02-08T11:57:46.928Z,1340
2018-02-08T11:58:57.116Z,1380
2018-02-08T12:00:07.336Z,1420
2018-02-08T12:01:17.607Z,1445
2018-02-08T12:02:27.905Z,1415
2018-02-08T12:03:38.107Z,1420
2018-02-08T12:04:48.366Z,1395
2018-02-08T12:05:58.296Z,1360
2018-02-08T12:07:08.461Z,1345
2018-02-08T12:08:18.647Z,1310
2018-02-08T12:09:28.557Z,1305
2018-02-08T12:10:38.692Z,1335
2018-02-08T12:11:48.819Z,1435
2018-02-08T12:12:58.984Z,1485
2018-02-08T12:14:09.163Z,1420
2018-02-08T12:15:19.315Z,1370
2018-02-08T12:16:29.514Z,1345
2018-02-08T12:17:39.424Z,1375
2018-02-08T12:18:50.533Z,1355
2018-02-08T12:20:00.703Z,1295
2018-02-08T12:21:10.971Z,1220
2018-02-08T12:22:21.185Z,1215
2018-02-08T12:23:31.414Z,1250
2018-02-08T12:24:41.686Z,1280
2018-02-08T12:25:51.955Z,1315
2018-02-08T12:27:02.152Z,1325
2018-02-08T12:28:12.316Z,1310
2018-02-08T12:29:22.105Z,1315
2018-02-08T12:30:32.250Z,1320
2018-02-08T12:31:42.410Z,1320
2018-02-08T12:32:52.582Z,1270
2018-02-08T12:34:02.779Z,1215
2018-02-08T12:35:12.923Z,1200
2018-02-08T12:36:23.083Z,1230
2018-02-08T12:37:33.235Z,1255
2018-02-08T12:38:43.386Z,1240
2018-02-08T12:39:53.558Z,1205
2018-02-08T12:41:03.821Z,1190
2018-02-08T12:42:13.801Z,1195
2018-02-08T12:43:23.973Z,1180
2018-02-08T12:44:34.136Z,1150
2018-02-08T12:45:44.285Z,1105
2018-02-08T12:46:54.295Z,1035
2018-02-08T12:48:04.495Z,1130
2018-02-08T12:49:14.462Z,1105
2018-02-08T12:50:24.681Z,1105
2018-02-08T12:51:34.888Z,1115
2018-02-08T12:52:45.037Z,1120
2018-02-08T12:53:55.211Z,1125
2018-02-08T12:55:05.114Z,1110
2018-02-08T12:56:15.304Z,1110
2018-02-08T12:57:25.451Z,1110
2018-02-08T12:58:35.619Z,1105
2018-02-08T12:59:45.534Z,1125
2018-02-08T13:00:55.676Z,1125
2018-02-08T13:02:06.008Z,1095
2018-02-08T13:03:16.194Z,1055
2018-02-08T13:04:26.339Z,1035
2018-02-08T13:05:36.525Z,1020
2018-02-08T13:06:46.701Z,1015
2018-02-08T13:07:56.966Z,995
2018-02-08T13:09:07.188Z,995
2018-02-08T13:10:17.376Z,995
2018-02-08T13:11:27.628Z,1005
2018-02-08T13:12:37.816Z,1005
2018-02-08T13:13:47.860Z,1005
2018-02-08T13:14:57.770Z,970
2018-02-08T13:16:07.903Z,945
2018-02-08T13:17:18.060Z,810
2018-02-08T13:18:28.216Z,610
2018-02-08T13:19:38.374Z,550
2018-02-08T13:20:48.503Z,540
2018-02-08T13:21:58.674Z,535
2018-02-08T13:23:08.885Z,635
2018-02-08T13:24:19.036Z,875
2018-02-08T13:25:29.245Z,910
2018-02-08T13:26:39.506Z,865
2018-02-08T13:27:49.770Z,885
2018-02-08T13:29:00.995Z,900
2018-02-08T13:30:11.222Z,930
2018-02-08T13:31:22.368Z,920
2018-02-08T13:32:32.283Z,885
2018-02-08T13:33:42.203Z,870
2018-02-08T13:34:52.340Z,880
2018-02-08T13:36:02.500Z,905
2018-02-08T13:37:12.658Z,905
2018-02-08T13:38:22.804Z,895
2018-02-08T13:39:33.939Z,890
2018-02-08T13:40:44.158Z,875
2018-02-08T13:41:54.376Z,825
2018-02-08T13:43:04.549Z,730
2018-02-08T13:44:14.765Z,610
2018-02-08T13:45:24.687Z,515
2018-02-08T13:46:34.824Z,480
2018-02-08T13:47:44.751Z,465
2018-02-08T13:48:54.894Z,450
2018-02-08T13:50:05.033Z,445
2018-02-08T13:51:15.234Z,435
2018-02-08T13:52:25.359Z,430
2018-02-08T13:53:35.746Z,425
2018-02-08T13:54:45.880Z,425
2018-02-08T13:55:55.751Z,420
2018-02-08T13:57:05.867Z,420
2018-02-08T13:58:16.022Z,415
2018-02-08T13:59:26.250Z,410
2018-02-08T14:00:36.442Z,410
2018-02-08T14:01:46.652Z,410
2018-02-08T14:02:56.540Z,410
2018-02-08T14:04:06.745Z,400
2018-02-08T14:05:16.891Z,395
2018-02-08T14:06:27.078Z,385
2018-02-08T14:07:37.208Z,375
2018-02-08T14:08:47.426Z,360
2018-02-08T14:09:57.754Z,350
2018-02-08T14:11:07.996Z,345
2018-02-08T14:12:18.187Z,335
2018-02-08T14:13:28.395Z,325
2018-02-08T14:14:38.315Z,310
2018-02-08T14:15:48.679Z,305
2018-02-08T14:16:58.820Z,290
2018-02-08T14:18:09.929Z,290
2018-02-08T14:19:20.081Z,285
2018-02-08T14:20:30.297Z,285
2018-02-08T14:21:40.497Z,285
2018-02-08T14:22:51.647Z,285
2018-02-08T14:24:01.776Z,285
2018-02-08T14:25:11.682Z,285
2018-02-08T14:26:21.883Z,275
2018-02-08T14:27:32.053Z,275
2018-02-08T14:28:42.255Z,280
2018-02-08T14:29:52.412Z,285
2018-02-08T14:31:02.561Z,295
2018-02-08T14:32:12.889Z,290
2018-02-08T14:33:23.033Z,295
2018-02-08T14:34:33.246Z,290
2018-02-08T14:35:43.382Z,285
2018-02-08T14:36:53.519Z,275
2018-02-08T14:38:03.654Z,270
2018-02-08T14:39:13.802Z,265
2018-02-08T14:40:23.686Z,255
2018-02-08T14:41:33.817Z,245
2018-02-08T14:42:43.747Z,245
2018-02-08T14:43:53.869Z,245
2018-02-08T14:45:03.991Z,240
2018-02-08T14:46:14.224Z,235
2018-02-08T14:47:24.385Z,270
2018-02-08T14:48:34.533Z,315
2018-02-08T14:49:44.794Z,320
2018-02-08T14:50:55.014Z,320
2018-02-08T14:52:05.231Z,305
2018-02-08T14:53:15.359Z,305
2018-02-08T14:54:25.587Z,290
2018-02-08T14:55:35.502Z,285
2018-02-08T14:56:46.628Z,280
2018-02-08T14:57:56.798Z,275
2018-02-08T14:59:07.900Z,260
2018-02-08T15:00:18.092Z,215
2018-02-08T15:01:28.231Z,190
2018-02-08T15:02:38.370Z,175
2018-02-08T15:03:48.392Z,155
2018-02-08T15:04:58.573Z,150
2018-02-08T15:06:08.749Z,145
2018-02-08T15:07:18.764Z,145
2018-02-08T15:08:29.894Z,145
2018-02-08T15:09:40.075Z,140
2018-02-08T15:10:50.289Z,135
2018-02-08T15:12:00.511Z,130
2018-02-08T15:13:10.723Z,125
2018-02-08T15:14:20.914Z,120
2018-02-08T15:15:31.158Z,115
2018-02-08T15:16:41.361Z,110
2018-02-08T15:17:51.278Z,115
2018-02-08T15:19:01.423Z,105
2018-02-08T15:20:11.715Z,100
2018-02-08T15:21:21.838Z,100
2018-02-08T15:22:31.860Z,95
2018-02-08T15:23:41.538Z,95
2018-02-08T15:24:51.695Z,90
2018-02-08T15:26:01.821Z,90
2018-02-08T15:27:12.983Z,90
2018-02-08T15:28:23.120Z,90
2018-02-08T15:29:33.295Z,85
2018-02-08T15:30:43.495Z,85
2018-02-08T15:31:54.628Z,80
2018-02-08T15:33:04.776Z,80
2018-02-08T15:34:14.946Z,75
2018-02-08T15:35:24.517Z,70
2018-02-08T15:36:34.681Z,65
2018-02-08T15:37:44.846Z,60
2018-02-08T15:38:54.975Z,55
2018-02-08T15:40:04.960Z,55
2018-02-08T15:41:15.113Z,55
2018-02-08T15:42:25.274Z,50
2018-02-08T15:43:35.420Z,45
2018-02-08T15:44:45.312Z,45
2018-02-08T15:45:55.471Z,45
2018-02-08T15:47:05.623Z,45
2018-02-08T15:48:15.853Z,45
2018-02-08T15:49:26.011Z,40
2018-02-08T15:50:36.156Z,35
2018-02-08T15:51:46.138Z,35
2018-02-08T15:52:56.338Z,35
2018-02-08T15:54:06.492Z,35
2018-02-08T15:55:16.800Z,30
2018-02-08T15:56:26.942Z,25
2018-02-08T15:57:37.194Z,25
2018-02-08T15:58:47.338Z,25
2018-02-08T15:59:57.555Z,20
2018-02-08T16:01:07.872Z,20
2018-02-08T16:02:18.166Z,20
2018-02-08T16:03:28.044Z,15
2018-02-08T16:04:38.191Z,15
2018-02-08T16:05:48.322Z,15
2018-02-08T16:06:58.502Z,15
2018-02-08T16:08:08.698Z,10
2018-02-08T16:09:18.970Z,10
2018-02-08T16:10:28.875Z,10
2018-02-08T16:11:38.853Z,10
2018-02-08T16:12:48.728Z,10
2018-02-08T16:13:58.883Z,5
2018-02-08T16:15:09.048Z,5
2018-02-08T16:16:19.216Z,5
2018-02-08T16:17:29.501Z,5
2018-02-08T16:18:39.686Z,5
2018-02-08T16:19:49.911Z,5
2018-02-08T16:21:00.043Z,5
2018-02-08T16:22:10.188Z,5
2018-02-08T16:23:20.386Z,0
2018-02-08T16:24:30.390Z,0
2018-02-08T16:25:40.238Z,0
2018-02-08T16:26:50.406Z,0
2018-02-08T16:28:00.580Z,0
2018-02-08T16:29:10.789Z,0
2018-02-08T16:30:20.709Z,0
2018-02-08T16:31:30.911Z,0